sensor_id;sensor_type;location;lat;lon;timestamp;P1;durP1;ratioP1;P2;durP2;ratioP2
45522;SDS011;31254;51.680;5.394;2022-10-31T00:01:30;17.40;;;9.85;;
45522;SDS011;31254;51.680;5.394;2022-10-31T00:03:59;18.80;;;8.63;;
45522;SDS011;31254;51.680;5.394;2022-10-31T00:06:26;20.38;;;9.52;;
45522;SDS011;31254;51.680;5.394;2022-10-31T00:08:54;16.30;;;8.88;;
45522;SDS011;31254;51.680;5.394;2022-10-31T00:11:22;18.05;;;9.27;;
45522;SDS011;31254;51.680;5.394;2022-10-31T00:13:49;15.40;;;9.52;;
45522;SDS011;31254;51.680;5.394;2022-10-31T00:16:18;16.83;;;9.50;;
45522;SDS011;31254;51.680;5.394;2022-10-31T00:18:50;14.85;;;9.05;;
45522;SDS011;31254;51.680;5.394;2022-10-31T00:21:18;16.02;;;9.10;;
45522;SDS011;31254;51.680;5.394;2022-10-31T00:23:46;21.27;;;9.65;;
45522;SDS011;31254;51.680;5.394;2022-10-31T00:26:13;16.40;;;9.57;;
45522;SDS011;31254;51.680;5.394;2022-10-31T00:28:42;19.30;;;9.70;;
45522;SDS011;31254;51.680;5.394;2022-10-31T00:31:10;15.75;;;9.50;;
45522;SDS011;31254;51.680;5.394;2022-10-31T00:33:38;18.25;;;9.60;;
45522;SDS011;31254;51.680;5.394;2022-10-31T00:36:07;14.80;;;9.32;;
45522;SDS011;31254;51.680;5.394;2022-10-31T00:38:36;16.15;;;10.43;;
45522;SDS011;31254;51.680;5.394;2022-10-31T00:41:03;20.38;;;10.57;;
45522;SDS011;31254;51.680;5.394;2022-10-31T00:43:30;20.38;;;10.73;;
45522;SDS011;31254;51.680;5.394;2022-10-31T00:45:57;18.35;;;11.15;;
45522;SDS011;31254;51.680;5.394;2022-10-31T00:48:24;26.80;;;10.93;;
45522;SDS011;31254;51.680;5.394;2022-10-31T00:50:50;18.40;;;10.85;;
45522;SDS011;31254;51.680;5.394;2022-10-31T00:53:20;17.83;;;10.70;;
45522;SDS011;31254;51.680;5.394;2022-10-31T00:55:47;20.45;;;10.98;;
45522;SDS011;31254;51.680;5.394;2022-10-31T00:58:14;21.02;;;11.98;;
45522;SDS011;31254;51.680;5.394;2022-10-31T01:00:40;20.30;;;10.63;;
45522;SDS011;31254;51.680;5.394;2022-10-31T01:03:11;18.33;;;11.05;;
45522;SDS011;31254;51.680;5.394;2022-10-31T01:06:11;16.75;;;10.88;;
45522;SDS011;31254;51.680;5.394;2022-10-31T01:08:39;20.90;;;9.50;;
45522;SDS011;31254;51.680;5.394;2022-10-31T01:13:46;19.65;;;10.82;;
45522;SDS011;31254;51.680;5.394;2022-10-31T01:16:23;17.95;;;10.65;;
45522;SDS011;31254;51.680;5.394;2022-10-31T01:18:51;21.98;;;11.27;;
45522;SDS011;31254;51.680;5.394;2022-10-31T01:21:24;18.88;;;10.93;;
45522;SDS011;31254;51.680;5.394;2022-10-31T01:23:54;21.05;;;11.88;;
45522;SDS011;31254;51.680;5.394;2022-10-31T01:26:23;16.50;;;11.02;;
45522;SDS011;31254;51.680;5.394;2022-10-31T01:28:52;18.75;;;11.23;;
45522;SDS011;31254;51.680;5.394;2022-10-31T01:31:22;18.27;;;10.88;;
45522;SDS011;31254;51.680;5.394;2022-10-31T01:33:51;19.48;;;11.07;;
45522;SDS011;31254;51.680;5.394;2022-10-31T01:38:49;18.90;;;10.85;;
45522;SDS011;31254;51.680;5.394;2022-10-31T01:41:20;18.70;;;10.82;;
45522;SDS011;31254;51.680;5.394;2022-10-31T01:46:20;16.65;;;10.48;;
45522;SDS011;31254;51.680;5.394;2022-10-31T01:49:00;19.77;;;10.68;;
45522;SDS011;31254;51.680;5.394;2022-10-31T01:51:30;19.23;;;10.85;;
45522;SDS011;31254;51.680;5.394;2022-10-31T01:54:02;16.90;;;10.73;;
45522;SDS011;31254;51.680;5.394;2022-10-31T01:56:37;17.45;;;10.52;;
45522;SDS011;31254;51.680;5.394;2022-10-31T01:59:09;14.57;;;10.35;;
45522;SDS011;31254;51.680;5.394;2022-10-31T02:01:38;20.60;;;10.70;;
45522;SDS011;31254;51.680;5.394;2022-10-31T02:04:05;21.05;;;12.02;;
45522;SDS011;31254;51.680;5.394;2022-10-31T02:06:37;16.33;;;10.27;;
45522;SDS011;31254;51.680;5.394;2022-10-31T02:09:09;16.98;;;10.95;;
45522;SDS011;31254;51.680;5.394;2022-10-31T02:11:38;16.92;;;10.18;;
45522;SDS011;31254;51.680;5.394;2022-10-31T02:14:05;18.50;;;11.07;;
45522;SDS011;31254;51.680;5.394;2022-10-31T02:16:31;19.50;;;10.77;;
45522;SDS011;31254;51.680;5.394;2022-10-31T02:18:58;18.02;;;10.57;;
45522;SDS011;31254;51.680;5.394;2022-10-31T02:24:21;17.67;;;10.43;;
45522;SDS011;31254;51.680;5.394;2022-10-31T02:27:12;14.45;;;9.55;;
45522;SDS011;31254;51.680;5.394;2022-10-31T02:29:57;17.05;;;9.77;;
45522;SDS011;31254;51.680;5.394;2022-10-31T02:32:52;20.17;;;10.65;;
45522;SDS011;31254;51.680;5.394;2022-10-31T02:35:53;19.58;;;9.75;;
45522;SDS011;31254;51.680;5.394;2022-10-31T02:44:15;17.55;;;10.40;;
45522;SDS011;31254;51.680;5.394;2022-10-31T02:46:50;15.60;;;10.13;;
45522;SDS011;31254;51.680;5.394;2022-10-31T02:52:02;19.17;;;10.15;;
45522;SDS011;31254;51.680;5.394;2022-10-31T02:54:30;15.77;;;10.35;;
45522;SDS011;31254;51.680;5.394;2022-10-31T02:56:59;15.15;;;9.30;;
45522;SDS011;31254;51.680;5.394;2022-10-31T02:59:30;19.00;;;10.55;;
45522;SDS011;31254;51.680;5.394;2022-10-31T03:04:51;15.48;;;9.70;;
45522;SDS011;31254;51.680;5.394;2022-10-31T03:14:03;14.55;;;9.70;;
45522;SDS011;31254;51.680;5.394;2022-10-31T03:16:14;16.30;;;10.00;;
45522;SDS011;31254;51.680;5.394;2022-10-31T03:21:18;16.40;;;9.35;;
45522;SDS011;31254;51.680;5.394;2022-10-31T03:23:49;18.77;;;9.68;;
45522;SDS011;31254;51.680;5.394;2022-10-31T03:26:18;14.27;;;9.43;;
45522;SDS011;31254;51.680;5.394;2022-10-31T03:28:58;16.90;;;8.85;;
45522;SDS011;31254;51.680;5.394;2022-10-31T03:31:29;19.58;;;9.70;;
45522;SDS011;31254;51.680;5.394;2022-10-31T03:34:02;18.80;;;8.95;;
45522;SDS011;31254;51.680;5.394;2022-10-31T03:36:30;16.52;;;9.00;;
45522;SDS011;31254;51.680;5.394;2022-10-31T03:39:01;14.55;;;8.90;;
45522;SDS011;31254;51.680;5.394;2022-10-31T03:41:32;13.32;;;9.07;;
45522;SDS011;31254;51.680;5.394;2022-10-31T03:44:06;12.10;;;8.50;;
45522;SDS011;31254;51.680;5.394;2022-10-31T03:46:37;19.23;;;9.55;;
45522;SDS011;31254;51.680;5.394;2022-10-31T03:49:03;12.60;;;8.90;;
45522;SDS011;31254;51.680;5.394;2022-10-31T03:51:41;14.98;;;9.02;;
45522;SDS011;31254;51.680;5.394;2022-10-31T03:54:13;14.05;;;9.02;;
45522;SDS011;31254;51.680;5.394;2022-10-31T03:56:51;15.27;;;8.57;;
45522;SDS011;31254;51.680;5.394;2022-10-31T03:59:40;11.77;;;8.20;;
45522;SDS011;31254;51.680;5.394;2022-10-31T04:02:11;12.00;;;7.93;;
45522;SDS011;31254;51.680;5.394;2022-10-31T04:04:42;12.60;;;8.25;;
45522;SDS011;31254;51.680;5.394;2022-10-31T04:07:13;11.65;;;7.95;;
45522;SDS011;31254;51.680;5.394;2022-10-31T04:09:43;13.70;;;8.65;;
45522;SDS011;31254;51.680;5.394;2022-10-31T04:12:13;16.40;;;8.02;;
45522;SDS011;31254;51.680;5.394;2022-10-31T04:14:42;14.90;;;8.77;;
45522;SDS011;31254;51.680;5.394;2022-10-31T04:17:13;13.23;;;7.43;;
45522;SDS011;31254;51.680;5.394;2022-10-31T04:19:43;12.15;;;7.72;;
45522;SDS011;31254;51.680;5.394;2022-10-31T04:22:10;13.27;;;7.05;;
45522;SDS011;31254;51.680;5.394;2022-10-31T04:24:37;11.00;;;6.75;;
45522;SDS011;31254;51.680;5.394;2022-10-31T04:27:06;11.45;;;6.45;;
45522;SDS011;31254;51.680;5.394;2022-10-31T04:29:33;8.57;;;5.97;;
45522;SDS011;31254;51.680;5.394;2022-10-31T04:31:59;11.88;;;6.47;;
45522;SDS011;31254;51.680;5.394;2022-10-31T04:34:28;11.95;;;6.70;;
45522;SDS011;31254;51.680;5.394;2022-10-31T04:36:57;9.73;;;6.07;;
45522;SDS011;31254;51.680;5.394;2022-10-31T04:39:24;10.73;;;6.35;;
45522;SDS011;31254;51.680;5.394;2022-10-31T04:41:52;11.73;;;6.25;;
45522;SDS011;31254;51.680;5.394;2022-10-31T04:44:18;11.05;;;6.60;;
45522;SDS011;31254;51.680;5.394;2022-10-31T04:46:45;12.77;;;6.50;;
45522;SDS011;31254;51.680;5.394;2022-10-31T04:49:14;12.30;;;7.03;;
45522;SDS011;31254;51.680;5.394;2022-10-31T04:51:40;11.65;;;7.13;;
45522;SDS011;31254;51.680;5.394;2022-10-31T04:54:09;10.90;;;7.03;;
45522;SDS011;31254;51.680;5.394;2022-10-31T04:56:35;12.73;;;7.43;;
45522;SDS011;31254;51.680;5.394;2022-10-31T04:59:02;12.73;;;6.93;;
45522;SDS011;31254;51.680;5.394;2022-10-31T05:01:29;11.90;;;7.50;;
45522;SDS011;31254;51.680;5.394;2022-10-31T05:03:55;12.43;;;6.93;;
45522;SDS011;31254;51.680;5.394;2022-10-31T05:06:22;12.35;;;6.80;;
45522;SDS011;31254;51.680;5.394;2022-10-31T05:08:49;11.95;;;6.60;;
45522;SDS011;31254;51.680;5.394;2022-10-31T05:11:15;11.77;;;8.20;;
45522;SDS011;31254;51.680;5.394;2022-10-31T05:13:42;17.67;;;8.63;;
45522;SDS011;31254;51.680;5.394;2022-10-31T05:16:08;17.35;;;10.68;;
45522;SDS011;31254;51.680;5.394;2022-10-31T05:18:37;15.85;;;10.07;;
45522;SDS011;31254;51.680;5.394;2022-10-31T05:21:04;16.17;;;10.98;;
45522;SDS011;31254;51.680;5.394;2022-10-31T05:23:30;19.25;;;11.02;;
45522;SDS011;31254;51.680;5.394;2022-10-31T05:25:57;14.75;;;11.05;;
45522;SDS011;31254;51.680;5.394;2022-10-31T05:28:23;17.85;;;11.18;;
45522;SDS011;31254;51.680;5.394;2022-10-31T05:30:50;18.60;;;10.57;;
45522;SDS011;31254;51.680;5.394;2022-10-31T05:33:19;19.60;;;11.05;;
45522;SDS011;31254;51.680;5.394;2022-10-31T05:35:46;17.10;;;10.48;;
45522;SDS011;31254;51.680;5.394;2022-10-31T05:38:15;21.23;;;11.55;;
45522;SDS011;31254;51.680;5.394;2022-10-31T05:40:41;18.63;;;11.40;;
45522;SDS011;31254;51.680;5.394;2022-10-31T05:43:10;21.08;;;11.63;;
45522;SDS011;31254;51.680;5.394;2022-10-31T05:45:39;15.75;;;10.95;;
45522;SDS011;31254;51.680;5.394;2022-10-31T05:48:08;18.20;;;11.57;;
45522;SDS011;31254;51.680;5.394;2022-10-31T05:50:37;19.10;;;11.27;;
45522;SDS011;31254;51.680;5.394;2022-10-31T05:53:04;18.33;;;10.98;;
45522;SDS011;31254;51.680;5.394;2022-10-31T05:55:31;23.27;;;11.13;;
45522;SDS011;31254;51.680;5.394;2022-10-31T05:57:58;17.13;;;9.63;;
45522;SDS011;31254;51.680;5.394;2022-10-31T06:00:26;15.40;;;8.35;;
45522;SDS011;31254;51.680;5.394;2022-10-31T06:03:00;13.85;;;7.70;;
45522;SDS011;31254;51.680;5.394;2022-10-31T06:05:28;11.90;;;7.60;;
45522;SDS011;31254;51.680;5.394;2022-10-31T06:07:55;13.32;;;7.35;;
45522;SDS011;31254;51.680;5.394;2022-10-31T06:10:23;12.02;;;6.78;;
45522;SDS011;31254;51.680;5.394;2022-10-31T06:12:50;14.93;;;6.82;;
45522;SDS011;31254;51.680;5.394;2022-10-31T06:15:17;14.75;;;7.43;;
45522;SDS011;31254;51.680;5.394;2022-10-31T06:18:03;15.38;;;7.47;;
45522;SDS011;31254;51.680;5.394;2022-10-31T06:20:31;10.70;;;6.60;;
45522;SDS011;31254;51.680;5.394;2022-10-31T06:23:01;10.13;;;6.97;;
45522;SDS011;31254;51.680;5.394;2022-10-31T06:25:29;9.75;;;6.45;;
45522;SDS011;31254;51.680;5.394;2022-10-31T06:27:55;8.50;;;6.00;;
45522;SDS011;31254;51.680;5.394;2022-10-31T06:30:22;9.73;;;6.53;;
45522;SDS011;31254;51.680;5.394;2022-10-31T06:32:51;12.10;;;7.10;;
45522;SDS011;31254;51.680;5.394;2022-10-31T06:35:18;12.30;;;7.18;;
45522;SDS011;31254;51.680;5.394;2022-10-31T06:37:53;10.60;;;6.82;;
45522;SDS011;31254;51.680;5.394;2022-10-31T06:40:20;12.38;;;7.38;;
45522;SDS011;31254;51.680;5.394;2022-10-31T06:42:55;16.08;;;7.07;;
45522;SDS011;31254;51.680;5.394;2022-10-31T06:45:25;15.02;;;7.40;;
45522;SDS011;31254;51.680;5.394;2022-10-31T06:47:53;14.60;;;8.25;;
45522;SDS011;31254;51.680;5.394;2022-10-31T06:50:42;20.52;;;10.65;;
45522;SDS011;31254;51.680;5.394;2022-10-31T06:53:11;19.70;;;9.63;;
45522;SDS011;31254;51.680;5.394;2022-10-31T06:55:40;20.63;;;10.15;;
45522;SDS011;31254;51.680;5.394;2022-10-31T06:58:08;18.83;;;9.40;;
45522;SDS011;31254;51.680;5.394;2022-10-31T07:00:36;19.10;;;10.77;;
45522;SDS011;31254;51.680;5.394;2022-10-31T07:03:05;18.80;;;10.10;;
45522;SDS011;31254;51.680;5.394;2022-10-31T07:05:33;20.17;;;9.90;;
45522;SDS011;31254;51.680;5.394;2022-10-31T07:08:01;24.88;;;10.70;;
45522;SDS011;31254;51.680;5.394;2022-10-31T07:10:31;20.75;;;10.50;;
45522;SDS011;31254;51.680;5.394;2022-10-31T07:13:06;20.73;;;10.65;;
45522;SDS011;31254;51.680;5.394;2022-10-31T07:15:37;21.23;;;11.98;;
45522;SDS011;31254;51.680;5.394;2022-10-31T07:18:05;17.90;;;10.70;;
45522;SDS011;31254;51.680;5.394;2022-10-31T07:20:33;17.58;;;10.77;;
45522;SDS011;31254;51.680;5.394;2022-10-31T07:23:03;25.17;;;11.02;;
45522;SDS011;31254;51.680;5.394;2022-10-31T07:25:30;20.45;;;11.30;;
45522;SDS011;31254;51.680;5.394;2022-10-31T07:27:58;17.67;;;10.40;;
45522;SDS011;31254;51.680;5.394;2022-10-31T07:30:25;18.65;;;11.02;;
45522;SDS011;31254;51.680;5.394;2022-10-31T07:32:52;22.38;;;12.20;;
45522;SDS011;31254;51.680;5.394;2022-10-31T07:35:20;15.88;;;10.63;;
45522;SDS011;31254;51.680;5.394;2022-10-31T07:37:50;19.15;;;11.82;;
45522;SDS011;31254;51.680;5.394;2022-10-31T07:40:18;17.58;;;11.15;;
45522;SDS011;31254;51.680;5.394;2022-10-31T07:42:46;22.35;;;11.77;;
45522;SDS011;31254;51.680;5.394;2022-10-31T07:45:18;20.45;;;12.20;;
45522;SDS011;31254;51.680;5.394;2022-10-31T07:47:49;18.90;;;11.88;;
45522;SDS011;31254;51.680;5.394;2022-10-31T07:50:22;20.52;;;12.18;;
45522;SDS011;31254;51.680;5.394;2022-10-31T07:55:30;17.27;;;10.88;;
45522;SDS011;31254;51.680;5.394;2022-10-31T07:57:58;16.13;;;10.93;;
45522;SDS011;31254;51.680;5.394;2022-10-31T08:00:26;15.13;;;10.60;;
45522;SDS011;31254;51.680;5.394;2022-10-31T08:03:03;23.33;;;11.48;;
45522;SDS011;31254;51.680;5.394;2022-10-31T08:05:37;18.40;;;12.27;;
45522;SDS011;31254;51.680;5.394;2022-10-31T08:08:05;26.70;;;12.95;;
45522;SDS011;31254;51.680;5.394;2022-10-31T08:10:32;23.88;;;13.50;;
45522;SDS011;31254;51.680;5.394;2022-10-31T08:13:10;21.83;;;12.90;;
45522;SDS011;31254;51.680;5.394;2022-10-31T08:15:38;22.52;;;14.30;;
45522;SDS011;31254;51.680;5.394;2022-10-31T08:18:13;23.85;;;13.93;;
45522;SDS011;31254;51.680;5.394;2022-10-31T08:20:41;26.38;;;14.93;;
45522;SDS011;31254;51.680;5.394;2022-10-31T08:23:09;26.30;;;15.25;;
45522;SDS011;31254;51.680;5.394;2022-10-31T08:25:39;22.80;;;14.77;;
45522;SDS011;31254;51.680;5.394;2022-10-31T08:28:06;26.92;;;15.35;;
45522;SDS011;31254;51.680;5.394;2022-10-31T08:30:35;25.23;;;14.88;;
45522;SDS011;31254;51.680;5.394;2022-10-31T08:35:44;32.42;;;15.65;;
45522;SDS011;31254;51.680;5.394;2022-10-31T08:38:11;22.77;;;15.30;;
45522;SDS011;31254;51.680;5.394;2022-10-31T08:40:39;26.42;;;15.32;;
45522;SDS011;31254;51.680;5.394;2022-10-31T08:43:08;25.02;;;16.95;;
45522;SDS011;31254;51.680;5.394;2022-10-31T08:45:38;23.60;;;15.55;;
45522;SDS011;31254;51.680;5.394;2022-10-31T08:48:15;28.02;;;16.67;;
45522;SDS011;31254;51.680;5.394;2022-10-31T08:50:43;26.65;;;18.08;;
45522;SDS011;31254;51.680;5.394;2022-10-31T08:53:17;31.60;;;18.58;;
45522;SDS011;31254;51.680;5.394;2022-10-31T08:55:45;30.40;;;17.88;;
45522;SDS011;31254;51.680;5.394;2022-10-31T08:58:14;35.13;;;20.00;;
45522;SDS011;31254;51.680;5.394;2022-10-31T09:00:45;35.35;;;19.38;;
45522;SDS011;31254;51.680;5.394;2022-10-31T09:03:20;39.25;;;21.00;;
45522;SDS011;31254;51.680;5.394;2022-10-31T09:05:54;30.92;;;19.92;;
45522;SDS011;31254;51.680;5.394;2022-10-31T09:08:22;37.35;;;22.13;;
45522;SDS011;31254;51.680;5.394;2022-10-31T09:10:49;39.55;;;21.58;;
45522;SDS011;31254;51.680;5.394;2022-10-31T09:13:17;33.25;;;20.33;;
45522;SDS011;31254;51.680;5.394;2022-10-31T09:15:46;35.67;;;21.48;;
45522;SDS011;31254;51.680;5.394;2022-10-31T09:18:15;34.45;;;20.60;;
45522;SDS011;31254;51.680;5.394;2022-10-31T09:20:44;29.73;;;19.40;;
45522;SDS011;31254;51.680;5.394;2022-10-31T09:23:13;31.00;;;19.05;;
45522;SDS011;31254;51.680;5.394;2022-10-31T09:25:45;32.22;;;19.85;;
45522;SDS011;31254;51.680;5.394;2022-10-31T09:28:19;32.92;;;19.15;;
45522;SDS011;31254;51.680;5.394;2022-10-31T09:30:48;38.03;;;20.67;;
45522;SDS011;31254;51.680;5.394;2022-10-31T09:33:18;33.80;;;19.98;;
45522;SDS011;31254;51.680;5.394;2022-10-31T09:35:45;28.30;;;18.58;;
45522;SDS011;31254;51.680;5.394;2022-10-31T09:38:13;35.35;;;19.67;;
45522;SDS011;31254;51.680;5.394;2022-10-31T09:40:49;29.42;;;18.77;;
45522;SDS011;31254;51.680;5.394;2022-10-31T09:43:46;29.95;;;18.88;;
45522;SDS011;31254;51.680;5.394;2022-10-31T09:49:22;33.70;;;19.30;;
45522;SDS011;31254;51.680;5.394;2022-10-31T09:54:49;29.42;;;18.92;;
45522;SDS011;31254;51.680;5.394;2022-10-31T09:57:30;32.92;;;18.45;;
45522;SDS011;31254;51.680;5.394;2022-10-31T09:59:59;34.15;;;16.83;;
45522;SDS011;31254;51.680;5.394;2022-10-31T10:05:01;30.38;;;15.95;;
45522;SDS011;31254;51.680;5.394;2022-10-31T10:10:05;39.97;;;18.77;;
45522;SDS011;31254;51.680;5.394;2022-10-31T10:15:43;29.52;;;17.70;;
45522;SDS011;31254;51.680;5.394;2022-10-31T10:21:12;32.22;;;18.95;;
45522;SDS011;31254;51.680;5.394;2022-10-31T10:26:50;27.85;;;18.33;;
45522;SDS011;31254;51.680;5.394;2022-10-31T10:32:44;29.23;;;18.88;;
45522;SDS011;31254;51.680;5.394;2022-10-31T10:38:10;50.75;;;26.73;;
45522;SDS011;31254;51.680;5.394;2022-10-31T10:40:47;48.63;;;26.58;;
45522;SDS011;31254;51.680;5.394;2022-10-31T11:00:15;39.58;;;23.77;;
45522;SDS011;31254;51.680;5.394;2022-10-31T11:02:45;45.25;;;22.65;;
45522;SDS011;31254;51.680;5.394;2022-10-31T11:05:35;40.75;;;23.77;;
45522;SDS011;31254;51.680;5.394;2022-10-31T11:08:05;46.05;;;24.50;;
45522;SDS011;31254;51.680;5.394;2022-10-31T11:10:32;41.15;;;24.02;;
45522;SDS011;31254;51.680;5.394;2022-10-31T11:18:24;39.20;;;22.60;;
45522;SDS011;31254;51.680;5.394;2022-10-31T11:20:53;39.58;;;22.70;;
45522;SDS011;31254;51.680;5.394;2022-10-31T11:23:25;39.22;;;23.10;;
45522;SDS011;31254;51.680;5.394;2022-10-31T11:25:57;46.65;;;25.13;;
45522;SDS011;31254;51.680;5.394;2022-10-31T11:28:26;49.95;;;24.00;;
45522;SDS011;31254;51.680;5.394;2022-10-31T11:30:59;43.47;;;23.60;;
45522;SDS011;31254;51.680;5.394;2022-10-31T11:33:32;39.13;;;23.13;;
45522;SDS011;31254;51.680;5.394;2022-10-31T11:36:27;42.10;;;23.55;;
45522;SDS011;31254;51.680;5.394;2022-10-31T11:38:59;44.47;;;24.23;;
45522;SDS011;31254;51.680;5.394;2022-10-31T11:41:35;47.20;;;24.73;;
45522;SDS011;31254;51.680;5.394;2022-10-31T11:44:25;38.78;;;23.35;;
45522;SDS011;31254;51.680;5.394;2022-10-31T11:46:54;42.67;;;24.13;;
45522;SDS011;31254;51.680;5.394;2022-10-31T11:52:15;46.08;;;25.20;;
45522;SDS011;31254;51.680;5.394;2022-10-31T11:54:52;41.13;;;24.17;;
45522;SDS011;31254;51.680;5.394;2022-10-31T11:57:25;44.10;;;24.85;;
45522;SDS011;31254;51.680;5.394;2022-10-31T12:00:02;41.35;;;24.08;;
45522;SDS011;31254;51.680;5.394;2022-10-31T12:02:31;47.22;;;25.20;;
45522;SDS011;31254;51.680;5.394;2022-10-31T12:07:32;42.60;;;25.27;;
45522;SDS011;31254;51.680;5.394;2022-10-31T12:09:59;45.15;;;24.42;;
45522;SDS011;31254;51.680;5.394;2022-10-31T12:15:09;47.15;;;24.60;;
45522;SDS011;31254;51.680;5.394;2022-10-31T12:17:49;50.38;;;26.42;;
45522;SDS011;31254;51.680;5.394;2022-10-31T12:34:50;44.53;;;25.20;;
45522;SDS011;31254;51.680;5.394;2022-10-31T13:02:00;35.95;;;21.52;;
45522;SDS011;31254;51.680;5.394;2022-10-31T13:07:24;41.53;;;21.80;;
45522;SDS011;31254;51.680;5.394;2022-10-31T13:10:03;37.90;;;20.73;;
45522;SDS011;31254;51.680;5.394;2022-10-31T13:12:42;43.28;;;20.75;;
45522;SDS011;31254;51.680;5.394;2022-10-31T13:15:15;35.10;;;19.83;;
45522;SDS011;31254;51.680;5.394;2022-10-31T13:17:46;37.33;;;19.88;;
45522;SDS011;31254;51.680;5.394;2022-10-31T13:20:37;42.58;;;21.00;;
45522;SDS011;31254;51.680;5.394;2022-10-31T13:26:06;36.25;;;19.75;;
45522;SDS011;31254;51.680;5.394;2022-10-31T13:28:46;32.70;;;17.98;;
45522;SDS011;31254;51.680;5.394;2022-10-31T13:31:16;30.77;;;18.13;;
45522;SDS011;31254;51.680;5.394;2022-10-31T13:33:45;28.75;;;16.60;;
45522;SDS011;31254;51.680;5.394;2022-10-31T13:41:48;30.27;;;15.38;;
45522;SDS011;31254;51.680;5.394;2022-10-31T13:44:38;26.63;;;15.80;;
45522;SDS011;31254;51.680;5.394;2022-10-31T13:47:23;26.85;;;14.32;;
45522;SDS011;31254;51.680;5.394;2022-10-31T13:50:04;28.80;;;15.07;;
45522;SDS011;31254;51.680;5.394;2022-10-31T13:52:35;29.70;;;14.65;;
45522;SDS011;31254;51.680;5.394;2022-10-31T13:55:03;25.33;;;13.85;;
45522;SDS011;31254;51.680;5.394;2022-10-31T14:02:56;31.42;;;13.95;;
45522;SDS011;31254;51.680;5.394;2022-10-31T14:05:25;29.90;;;14.30;;
45522;SDS011;31254;51.680;5.394;2022-10-31T14:07:56;25.23;;;12.55;;
45522;SDS011;31254;51.680;5.394;2022-10-31T14:10:33;25.25;;;13.48;;
45522;SDS011;31254;51.680;5.394;2022-10-31T14:13:17;24.15;;;12.35;;
45522;SDS011;31254;51.680;5.394;2022-10-31T14:15:59;25.17;;;12.45;;
45522;SDS011;31254;51.680;5.394;2022-10-31T14:18:31;20.52;;;12.93;;
45522;SDS011;31254;51.680;5.394;2022-10-31T14:21:12;18.95;;;11.63;;
45522;SDS011;31254;51.680;5.394;2022-10-31T14:23:52;23.05;;;13.50;;
45522;SDS011;31254;51.680;5.394;2022-10-31T14:28:54;37.30;;;12.73;;
45522;SDS011;31254;51.680;5.394;2022-10-31T14:34:32;30.67;;;12.30;;
45522;SDS011;31254;51.680;5.394;2022-10-31T14:39:31;30.65;;;12.27;;
45522;SDS011;31254;51.680;5.394;2022-10-31T14:52:55;23.10;;;13.18;;
45522;SDS011;31254;51.680;5.394;2022-10-31T14:55:29;25.80;;;12.68;;
45522;SDS011;31254;51.680;5.394;2022-10-31T14:57:57;22.92;;;12.40;;
45522;SDS011;31254;51.680;5.394;2022-10-31T15:00:27;28.02;;;12.45;;
45522;SDS011;31254;51.680;5.394;2022-10-31T15:03:03;21.58;;;12.38;;
45522;SDS011;31254;51.680;5.394;2022-10-31T15:05:31;24.00;;;12.63;;
45522;SDS011;31254;51.680;5.394;2022-10-31T15:07:59;25.30;;;13.15;;
45522;SDS011;31254;51.680;5.394;2022-10-31T15:10:29;24.20;;;13.55;;
45522;SDS011;31254;51.680;5.394;2022-10-31T15:13:13;26.20;;;12.77;;
45522;SDS011;31254;51.680;5.394;2022-10-31T15:15:45;29.25;;;13.65;;
45522;SDS011;31254;51.680;5.394;2022-10-31T15:18:19;28.30;;;12.48;;
45522;SDS011;31254;51.680;5.394;2022-10-31T15:20:48;31.50;;;14.27;;
45522;SDS011;31254;51.680;5.394;2022-10-31T15:23:17;25.73;;;12.93;;
45522;SDS011;31254;51.680;5.394;2022-10-31T15:25:49;23.63;;;14.05;;
45522;SDS011;31254;51.680;5.394;2022-10-31T15:28:21;31.95;;;14.10;;
45522;SDS011;31254;51.680;5.394;2022-10-31T15:30:50;30.95;;;13.68;;
45522;SDS011;31254;51.680;5.394;2022-10-31T15:33:25;27.63;;;13.65;;
45522;SDS011;31254;51.680;5.394;2022-10-31T15:36:20;23.55;;;12.90;;
45522;SDS011;31254;51.680;5.394;2022-10-31T15:38:57;24.25;;;12.80;;
45522;SDS011;31254;51.680;5.394;2022-10-31T15:42:13;27.42;;;12.35;;
45522;SDS011;31254;51.680;5.394;2022-10-31T15:44:28;24.20;;;12.73;;
45522;SDS011;31254;51.680;5.394;2022-10-31T15:47:01;24.90;;;12.88;;
45522;SDS011;31254;51.680;5.394;2022-10-31T15:49:36;21.52;;;12.55;;
45522;SDS011;31254;51.680;5.394;2022-10-31T15:52:09;23.85;;;11.88;;
45522;SDS011;31254;51.680;5.394;2022-10-31T15:54:44;30.08;;;12.35;;
45522;SDS011;31254;51.680;5.394;2022-10-31T15:57:14;29.48;;;12.45;;
45522;SDS011;31254;51.680;5.394;2022-10-31T15:59:48;25.55;;;12.50;;
45522;SDS011;31254;51.680;5.394;2022-10-31T16:02:18;23.70;;;12.88;;
45522;SDS011;31254;51.680;5.394;2022-10-31T16:04:51;21.42;;;12.52;;
45522;SDS011;31254;51.680;5.394;2022-10-31T16:07:23;22.27;;;12.05;;
45522;SDS011;31254;51.680;5.394;2022-10-31T16:12:29;26.48;;;13.07;;
45522;SDS011;31254;51.680;5.394;2022-10-31T16:15:17;24.70;;;12.90;;
45522;SDS011;31254;51.680;5.394;2022-10-31T16:17:48;25.60;;;12.75;;
45522;SDS011;31254;51.680;5.394;2022-10-31T16:20:25;26.98;;;12.45;;
45522;SDS011;31254;51.680;5.394;2022-10-31T16:22:54;25.10;;;12.65;;
45522;SDS011;31254;51.680;5.394;2022-10-31T16:25:35;29.67;;;12.40;;
45522;SDS011;31254;51.680;5.394;2022-10-31T16:28:04;24.70;;;12.73;;
45522;SDS011;31254;51.680;5.394;2022-10-31T16:30:45;26.35;;;13.15;;
45522;SDS011;31254;51.680;5.394;2022-10-31T16:35:50;28.13;;;13.70;;
45522;SDS011;31254;51.680;5.394;2022-10-31T16:38:29;40.38;;;15.43;;
45522;SDS011;31254;51.680;5.394;2022-10-31T16:40:56;27.40;;;14.90;;
45522;SDS011;31254;51.680;5.394;2022-10-31T16:43:24;31.23;;;13.75;;
45522;SDS011;31254;51.680;5.394;2022-10-31T16:45:51;30.05;;;15.23;;
45522;SDS011;31254;51.680;5.394;2022-10-31T16:48:19;26.42;;;14.40;;
45522;SDS011;31254;51.680;5.394;2022-10-31T16:50:49;30.27;;;15.50;;
45522;SDS011;31254;51.680;5.394;2022-10-31T16:53:18;26.00;;;13.88;;
45522;SDS011;31254;51.680;5.394;2022-10-31T16:55:46;32.70;;;14.43;;
45522;SDS011;31254;51.680;5.394;2022-10-31T16:58:20;27.67;;;13.27;;
45522;SDS011;31254;51.680;5.394;2022-10-31T17:00:49;25.50;;;14.38;;
45522;SDS011;31254;51.680;5.394;2022-10-31T17:03:17;23.15;;;13.15;;
45522;SDS011;31254;51.680;5.394;2022-10-31T17:05:43;32.40;;;15.00;;
45522;SDS011;31254;51.680;5.394;2022-10-31T17:08:10;31.00;;;14.43;;
45522;SDS011;31254;51.680;5.394;2022-10-31T17:10:38;29.95;;;14.32;;
45522;SDS011;31254;51.680;5.394;2022-10-31T17:13:06;34.20;;;14.20;;
45522;SDS011;31254;51.680;5.394;2022-10-31T17:15:47;30.05;;;13.88;;
45522;SDS011;31254;51.680;5.394;2022-10-31T17:18:20;27.48;;;14.23;;
45522;SDS011;31254;51.680;5.394;2022-10-31T17:20:59;26.48;;;13.35;;
45522;SDS011;31254;51.680;5.394;2022-10-31T17:23:28;24.10;;;12.77;;
45522;SDS011;31254;51.680;5.394;2022-10-31T17:25:55;29.88;;;12.38;;
45522;SDS011;31254;51.680;5.394;2022-10-31T17:28:24;24.20;;;13.07;;
45522;SDS011;31254;51.680;5.394;2022-10-31T17:30:52;22.90;;;12.88;;
45522;SDS011;31254;51.680;5.394;2022-10-31T17:33:20;23.92;;;12.88;;
45522;SDS011;31254;51.680;5.394;2022-10-31T17:35:49;25.13;;;13.60;;
45522;SDS011;31254;51.680;5.394;2022-10-31T17:38:16;26.63;;;12.93;;
45522;SDS011;31254;51.680;5.394;2022-10-31T17:40:45;24.40;;;12.48;;
45522;SDS011;31254;51.680;5.394;2022-10-31T17:43:15;21.70;;;11.32;;